Downstream station:
SHEF ID: INCM7 Indian Creek near Lanagan, MO
STATION TYPE:
PRECIP STAGE RIV-FLOW BAT-LOAD
in ft cfs volt
Ccp-Rev Ccp-Rev Ccp-Rev Ccp-Rev
(US/Central)
04/01 00:00 0.00 2.33 322 12.71
04/01 01:00 0.00 2.31 315 12.65
04/01 02:00 0.00 2.32 318 12.65
04/01 03:00 0.00 2.31 315 12.65
04/01 04:00 0.00 2.33 322 12.60
04/01 05:00 0.00 2.33 322 12.60
04/01 06:00 0.00 2.32 318 12.54
04/01 07:00 0.00 2.33 322 12.54
04/01 08:00 0.00 2.34 326 12.54
04/01 09:00 ---- ---- ---- ----
04/01 10:00 ---- 2.33 322 13.00
04/01 11:00 0.00 2.31 315 13.42
04/01 12:00 0.00 2.32 318 13.77
04/01 13:00 0.00 2.31 315 14.30
04/01 14:00 0.00 2.31 315 13.77
04/01 15:00 0.00 2.31 315 13.71
04/01 16:00 0.00 2.30 311 13.59
04/01 17:00 0.00 2.32 318 13.48
04/01 18:00 0.00 2.31 315 13.48
04/01 19:00 0.00 2.29 308 13.36
04/01 20:00 0.00 2.31 315 12.95
04/01 21:00 0.00 2.29 308 12.83
04/01 22:00 0.00 2.30 311 12.77
04/01 23:00 0.00 2.30 311 12.71